Time;durP1;ratioP1;P1;durP2;ratioP2;P2;SDS_P1;SDS_P2;PMS_P1;PMS_P2;Temp;Humidity;BMP_temperature;BMP_pressure;BME280_temperature;BME280_humidity;BME280_pressure;Samples;Min_cycle;Max_cycle;Signal;HPM_P1;HPM_P2
2023/04/16 00:00:51;;;;;;;17.65;8.00;;;;;;;;;;12987737;19;20027;-64
2023/04/16 00:05:21;;;;;;;16.52;8.38;;;;;;;;;;12986483;19;21091;-65
2023/04/16 00:09:38;;;;;;;25.08;10.27;;;;;;;;;;12986832;19;20026;-65
2023/04/16 00:13:56;;;;;;;16.30;8.25;;;;;;;;;;12986662;19;20015;-65
2023/04/16 00:18:14;;;;;;;16.80;9.25;;;;;;;;;;12986820;19;20023;-65
2023/04/16 00:22:32;;;;;;;13.90;8.60;;;;;;;;;;12986243;19;20023;-64
2023/04/16 00:26:49;;;;;;;18.30;9.52;;;;;;;;;;12985645;19;20010;-65
2023/04/16 00:31:07;;;;;;;;;;;;;;;;;;12986229;19;20354;-65
2023/04/16 00:35:25;;;;;;;17.10;9.88;;;;;;;;;;12986065;19;20671;-64
2023/04/16 00:39:43;;;;;;;53.35;20.85;;;;;;;;;;12985911;19;20979;-64
2023/04/16 00:44:01;;;;;;;21.70;12.30;;;;;;;;;;12984925;19;20090;-64
2023/04/16 00:48:19;;;;;;;24.98;11.52;;;;;;;;;;12984608;19;20793;-64
2023/04/16 00:52:37;;;;;;;26.48;12.30;;;;;;;;;;12984769;19;20093;-65
2023/04/16 00:56:57;;;;;;;25.20;12.00;;;;;;;;;;12983673;19;20141;-65
2023/04/16 01:01:15;;;;;;;23.70;12.25;;;;;;;;;;12983798;19;20031;-65
2023/04/16 01:05:32;;;;;;;23.23;12.40;;;;;;;;;;12985492;19;20010;-65
2023/04/16 01:09:50;;;;;;;33.42;13.98;;;;;;;;;;12983920;19;20014;-65
2023/04/16 01:14:07;;;;;;;27.27;12.95;;;;;;;;;;12983225;19;20047;-65
2023/04/16 01:18:25;;;;;;;21.70;12.20;;;;;;;;;;12983606;19;20070;-65
2023/04/16 01:22:43;;;;;;;19.23;9.85;;;;;;;;;;12983588;19;20015;-64
2023/04/16 01:27:01;;;;;;;17.35;9.65;;;;;;;;;;12982202;19;20010;-69
2023/04/16 01:31:18;;;;;;;16.35;9.65;;;;;;;;;;12982092;19;20010;-64
2023/04/16 01:35:36;;;;;;;17.38;9.88;;;;;;;;;;12981199;19;20023;-64
2023/04/16 01:39:54;;;;;;;;;;;;;;;;;;12982261;19;20018;-64
2023/04/16 01:44:12;;;;;;;18.45;10.60;;;;;;;;;;12980842;19;19935;-64
2023/04/16 01:48:30;;;;;;;17.60;11.10;;;;;;;;;;12981919;19;20023;-64
2023/04/16 01:52:48;;;;;;;;;;;;;;;;;;12982076;19;20031;-64
2023/04/16 01:57:05;;;;;;;19.13;10.23;;;;;;;;;;12978606;19;20284;-64
2023/04/16 02:01:23;;;;;;;14.77;10.13;;;;;;;;;;12981153;19;20089;-64
2023/04/16 02:05:41;;;;;;;13.30;8.68;;;;;;;;;;12981562;19;20082;-64
2023/04/16 02:09:58;;;;;;;16.50;9.70;;;;;;;;;;12979123;19;20529;-65
2023/04/16 02:14:16;;;;;;;14.68;9.75;;;;;;;;;;12980087;19;20018;-65
2023/04/16 02:18:34;;;;;;;19.67;10.25;;;;;;;;;;12980087;19;20506;-64
2023/04/16 02:22:51;;;;;;;14.50;8.98;;;;;;;;;;12979209;19;20018;-64
2023/04/16 02:27:10;;;;;;;16.63;9.63;;;;;;;;;;12978791;19;20040;-66
2023/04/16 02:31:29;;;;;;;14.80;9.57;;;;;;;;;;12979113;19;20898;-65
2023/04/16 02:35:47;;;;;;;18.80;9.88;;;;;;;;;;12977835;19;20089;-65
2023/04/16 02:40:06;;;;;;;17.98;10.63;;;;;;;;;;12978762;19;20011;-66
2023/04/16 02:44:24;;;;;;;17.35;10.50;;;;;;;;;;12978868;19;20035;-65
2023/04/16 02:48:42;;;;;;;15.07;9.65;;;;;;;;;;12978142;19;20521;-65
2023/04/16 02:52:59;;;;;;;20.70;10.00;;;;;;;;;;12977937;19;20784;-65
2023/04/16 02:57:17;;;;;;;18.08;10.50;;;;;;;;;;12977723;19;20018;-65
2023/04/16 03:01:35;;;;;;;17.10;9.25;;;;;;;;;;12978512;19;20113;-65
2023/04/16 03:05:52;;;;;;;16.25;9.48;;;;;;;;;;12977277;19;20014;-65
2023/04/16 03:10:11;;;;;;;17.88;10.10;;;;;;;;;;12974457;19;20082;-65
2023/04/16 03:14:30;;;;;;;14.07;9.02;;;;;;;;;;12977092;19;20022;-65
2023/04/16 03:18:47;;;;;;;14.27;9.43;;;;;;;;;;12976734;19;20137;-65
2023/04/16 03:23:05;;;;;;;14.15;8.52;;;;;;;;;;12975571;19;20054;-65
2023/04/16 03:27:23;;;;;;;14.13;9.10;;;;;;;;;;12976417;19;20081;-64
2023/04/16 03:31:41;;;;;;;11.13;6.97;;;;;;;;;;12975970;19;20462;-65
2023/04/16 03:35:59;;;;;;;;;;;;;;;;;;12975756;19;20019;-64
2023/04/16 03:40:17;;;;;;;9.85;7.22;;;;;;;;;;12975609;19;20722;-65
2023/04/16 03:44:35;;;;;;;11.93;7.30;;;;;;;;;;12975776;19;20018;-64
2023/04/16 03:48:52;;;;;;;10.23;6.05;;;;;;;;;;12975626;19;20541;-64
2023/04/16 03:53:10;;;;;;;10.15;6.55;;;;;;;;;;12975115;19;20655;-65
2023/04/16 03:57:27;;;;;;;8.85;6.13;;;;;;;;;;12974628;19;20022;-65
2023/04/16 04:01:45;;;;;;;12.32;7.35;;;;;;;;;;12974869;19;20023;-65
2023/04/16 04:06:07;;;;;;;9.88;6.38;;;;;;;;;;12974404;19;20591;-65
2023/04/16 04:10:25;;;;;;;11.00;7.10;;;;;;;;;;12974337;19;20015;-65
2023/04/16 04:14:43;;;;;;;10.38;6.97;;;;;;;;;;12974196;19;20018;-64
2023/04/16 04:19:00;;;;;;;11.52;7.60;;;;;;;;;;12973841;19;20034;-65
2023/04/16 04:23:18;;;;;;;10.02;6.55;;;;;;;;;;12985986;19;20014;-65
2023/04/16 04:27:35;;;;;;;10.82;7.00;;;;;;;;;;12985864;19;20129;-65
2023/04/16 04:31:54;;;;;;;12.30;8.13;;;;;;;;;;12985920;19;20081;-65
2023/04/16 04:36:12;;;;;;;10.35;7.35;;;;;;;;;;12985341;19;20177;-64
2023/04/16 04:40:29;;;;;;;13.77;7.05;;;;;;;;;;12986005;19;20057;-65
2023/04/16 04:44:47;;;;;;;12.18;7.13;;;;;;;;;;12986182;19;20093;-65
2023/04/16 04:49:05;;;;;;;;;;;;;;;;;;12985771;19;20023;-65
2023/04/16 04:53:23;;;;;;;13.55;7.22;;;;;;;;;;12984508;19;20699;-65
2023/04/16 04:57:41;;;;;;;14.90;7.80;;;;;;;;;;12984289;19;20033;-65
2023/04/16 05:01:59;;;;;;;11.70;7.15;;;;;;;;;;12984813;19;20022;-65
2023/04/16 05:06:17;;;;;;;15.27;8.80;;;;;;;;;;12982409;19;20019;-65
2023/04/16 05:10:35;;;;;;;15.80;9.57;;;;;;;;;;12984446;19;20026;-65
2023/04/16 05:14:52;;;;;;;16.15;9.48;;;;;;;;;;12984769;19;20029;-65
2023/04/16 05:19:10;;;;;;;14.23;9.18;;;;;;;;;;12983589;19;20425;-65
2023/04/16 05:23:28;;;;;;;;;;;;;;;;;;12983110;19;20019;-66
2023/04/16 05:27:46;;;;;;;15.80;8.75;;;;;;;;;;12983581;19;19986;-65
2023/04/16 05:32:04;;;;;;;16.02;9.63;;;;;;;;;;12980223;19;20015;-65
2023/04/16 05:36:21;;;;;;;;;;;;;;;;;;12981674;19;20035;-65
2023/04/16 05:40:39;;;;;;;16.47;10.50;;;;;;;;;;12982477;19;19937;-65
2023/04/16 05:44:57;;;;;;;20.55;11.30;;;;;;;;;;12981140;19;20639;-65
2023/04/16 05:49:17;;;;;;;19.85;10.80;;;;;;;;;;12981273;19;20030;-65
2023/04/16 05:53:35;;;;;;;18.45;10.88;;;;;;;;;;12981185;19;20003;-65
2023/04/16 05:57:53;;;;;;;20.45;12.32;;;;;;;;;;12980376;19;20031;-65
2023/04/16 06:02:10;;;;;;;20.83;11.65;;;;;;;;;;12980842;19;20027;-66
2023/04/16 06:06:28;;;;;;;21.25;12.43;;;;;;;;;;12980891;19;20010;-66
2023/04/16 06:10:46;;;;;;;21.52;12.20;;;;;;;;;;12981524;19;20015;-67
2023/04/16 06:15:05;;;;;;;29.48;13.18;;;;;;;;;;12979783;19;20018;-65
2023/04/16 06:19:22;;;;;;;25.40;12.75;;;;;;;;;;12975506;19;20877;-67
2023/04/16 06:23:40;;;;;;;23.98;12.50;;;;;;;;;;12966782;19;20028;-67
2023/04/16 06:27:58;;;;;;;26.30;14.35;;;;;;;;;;12978904;19;20504;-67
2023/04/16 06:32:16;;;;;;;31.17;13.70;;;;;;;;;;12978697;19;20019;-67
2023/04/16 06:36:36;;;;;;;35.70;16.52;;;;;;;;;;12978503;19;20108;-67
2023/04/16 06:40:54;;;;;;;29.48;13.93;;;;;;;;;;12978880;19;20027;-67
2023/04/16 06:45:12;;;;;;;31.08;14.95;;;;;;;;;;12978154;19;20772;-68
2023/04/16 06:49:29;;;;;;;31.00;15.23;;;;;;;;;;12979048;19;20086;-67
2023/04/16 06:53:48;;;;;;;27.27;13.68;;;;;;;;;;12979091;19;20018;-67
2023/04/16 06:58:05;;;;;;;31.25;14.93;;;;;;;;;;12976517;19;20007;-68
2023/04/16 07:02:23;;;;;;;31.00;14.75;;;;;;;;;;12977525;19;20631;-67
2023/04/16 07:06:41;;;;;;;29.67;14.68;;;;;;;;;;12977044;19;20025;-68
2023/04/16 07:10:59;;;;;;;33.42;16.38;;;;;;;;;;12976174;19;20066;-67
2023/04/16 07:15:17;;;;;;;;;;;;;;;;;;12977688;19;20032;-68
2023/04/16 07:19:35;;;;;;;27.67;14.52;;;;;;;;;;12976332;19;19990;-68
2023/04/16 07:23:53;;;;;;;32.38;14.27;;;;;;;;;;12975803;19;20011;-68
2023/04/16 07:28:11;;;;;;;26.98;13.55;;;;;;;;;;12975883;19;20022;-68
2023/04/16 07:32:29;;;;;;;30.17;14.88;;;;;;;;;;12976831;19;20031;-68
2023/04/16 07:36:47;;;;;;;23.77;12.35;;;;;;;;;;12975535;19;20007;-68
2023/04/16 07:41:05;;;;;;;28.05;14.73;;;;;;;;;;12975642;19;20042;-68
2023/04/16 07:45:23;;;;;;;32.05;16.17;;;;;;;;;;12975424;19;20688;-68
2023/04/16 07:49:41;;;;;;;;;;;;;;;;;;12976106;19;20319;-67
2023/04/16 07:53:58;;;;;;;34.35;17.02;;;;;;;;;;12975142;19;19918;-68
2023/04/16 07:58:16;;;;;;;39.28;18.08;;;;;;;;;;12986905;19;20031;-68
2023/04/16 08:02:34;;;;;;;40.30;16.92;;;;;;;;;;12987667;19;20034;-68
2023/04/16 08:06:53;;;;;;;42.03;19.77;;;;;;;;;;12985981;19;20011;-68
2023/04/16 08:11:10;;;;;;;42.20;18.73;;;;;;;;;;12986400;19;20419;-68
2023/04/16 08:15:28;;;;;;;43.00;18.52;;;;;;;;;;12985397;19;20025;-68
2023/04/16 08:19:46;;;;;;;38.83;18.55;;;;;;;;;;12986650;19;20018;-67
2023/04/16 08:24:04;;;;;;;36.38;18.02;;;;;;;;;;12984684;19;20014;-69
2023/04/16 08:28:22;;;;;;;41.53;21.55;;;;;;;;;;12986245;19;20888;-68
2023/04/16 08:32:39;;;;;;;38.03;18.83;;;;;;;;;;12985791;19;20028;-68
2023/04/16 08:36:57;;;;;;;;;;;;;;;;;;12985724;19;20137;-68
2023/04/16 08:41:15;;;;;;;37.47;18.05;;;;;;;;;;12985160;19;19935;-68
2023/04/16 08:45:34;;;;;;;40.13;17.40;;;;;;;;;;12985713;19;20014;-68
2023/04/16 08:49:55;;;;;;;36.72;17.55;;;;;;;;;;12985552;19;20018;-68
2023/04/16 08:54:42;;;;;;;30.65;13.43;;;;;;;;;;12982659;19;20014;-68
2023/04/16 08:59:03;;;;;;;22.02;11.15;;;;;;;;;;12981792;19;20014;-69
2023/04/16 09:03:21;;;;;;;25.25;12.10;;;;;;;;;;12982679;19;20375;-69
2023/04/16 09:07:40;;;;;;;;;;;;;;;;;;12979943;19;20101;-69
2023/04/16 09:11:58;;;;;;;27.55;12.90;;;;;;;;;;12982452;19;19927;-69
2023/04/16 09:16:17;;;;;;;30.25;13.20;;;;;;;;;;12983448;19;20015;-69
2023/04/16 09:20:34;;;;;;;29.63;12.35;;;;;;;;;;12981802;19;20654;-70
2023/04/16 09:24:52;;;;;;;26.65;11.73;;;;;;;;;;12983035;19;20078;-70
2023/04/16 09:29:10;;;;;;;24.95;12.13;;;;;;;;;;12964211;19;20018;-70
2023/04/16 09:33:28;;;;;;;25.50;12.48;;;;;;;;;;12980777;19;20031;-71
2023/04/16 09:37:56;;;;;;;17.13;8.40;;;;;;;;;;12981944;19;20019;-70
2023/04/16 09:42:14;;;;;;;19.00;10.20;;;;;;;;;;12981204;19;20031;-70
2023/04/16 09:46:33;;;;;;;;;;;;;;;;;;12979166;19;20013;-70
2023/04/16 09:50:51;;;;;;;17.80;9.93;;;;;;;;;;12982638;19;19935;-71
2023/04/16 09:55:12;;;;;;;16.95;8.25;;;;;;;;;;12981244;19;20026;-71
2023/04/16 09:59:32;;;;;;;16.33;8.38;;;;;;;;;;12979541;19;20039;-71
2023/04/16 10:03:54;;;;;;;18.98;9.38;;;;;;;;;;12981070;19;20055;-71
2023/04/16 10:08:12;;;;;;;15.35;8.25;;;;;;;;;;12978107;19;20031;-70
2023/04/16 10:12:34;;;;;;;13.75;7.05;;;;;;;;;;12980299;19;20033;-71
2023/04/16 10:16:52;;;;;;;13.55;7.45;;;;;;;;;;12979285;19;20015;-71
2023/04/16 10:21:11;;;;;;;13.82;6.57;;;;;;;;;;12976107;19;20043;-70
2023/04/16 10:25:30;;;;;;;11.73;5.80;;;;;;;;;;12979484;19;20019;-70
2023/04/16 10:29:49;;;;;;;13.98;7.43;;;;;;;;;;12979655;19;20048;-71
2023/04/16 10:34:08;;;;;;;12.27;6.40;;;;;;;;;;12978917;19;20110;-71
2023/04/16 10:38:27;;;;;;;10.52;6.10;;;;;;;;;;12976913;19;20019;-71
2023/04/16 10:42:57;;;;;;;12.13;6.72;;;;;;;;;;12978857;19;20079;-72
2023/04/16 10:47:14;;;;;;;11.18;6.10;;;;;;;;;;12980325;19;20014;-71
2023/04/16 10:51:35;;;;;;;11.35;5.80;;;;;;;;;;12983156;19;20014;-71
2023/04/16 10:56:11;;;;;;;11.73;6.65;;;;;;;;;;12983257;19;20007;-71
2023/04/16 11:00:29;;;;;;;13.50;5.63;;;;;;;;;;12982534;19;20033;-71
2023/04/16 11:04:48;;;;;;;9.27;5.03;;;;;;;;;;12983084;19;20505;-70
2023/04/16 11:09:25;;;;;;;11.05;4.70;;;;;;;;;;12982554;19;20007;-71
2023/04/16 11:13:47;;;;;;;13.48;5.13;;;;;;;;;;12980771;19;20002;-71
2023/04/16 11:18:05;;;;;;;9.02;4.93;;;;;;;;;;12980159;19;20011;-70
2023/04/16 11:22:24;;;;;;;6.68;4.20;;;;;;;;;;12981913;19;20020;-71
2023/04/16 11:26:41;;;;;;;;;;;;;;;;;;12979779;19;20022;-70
2023/04/16 11:31:08;;;;;;;23.45;12.88;;;;;;;;;;12978413;19;19922;-71
2023/04/16 11:35:26;;;;;;;12.07;5.38;;;;;;;;;;12978847;19;20058;-70
2023/04/16 11:39:51;;;;;;;8.15;4.78;;;;;;;;;;12979712;19;20017;-71
2023/04/16 11:44:26;;;;;;;9.02;4.95;;;;;;;;;;12979311;19;20423;-71
2023/04/16 11:48:46;;;;;;;8.95;5.75;;;;;;;;;;12978556;19;20011;-71
2023/04/16 11:53:05;;;;;;;7.50;4.38;;;;;;;;;;12979182;19;20010;-71
2023/04/16 11:57:31;;;;;;;11.35;6.18;;;;;;;;;;12978798;19;20027;-71
2023/04/16 12:01:54;;;;;;;7.93;5.23;;;;;;;;;;12980385;19;20018;-71
2023/04/16 12:06:12;;;;;;;6.97;4.53;;;;;;;;;;12979918;19;20473;-71
2023/04/16 12:10:36;;;;;;;18.20;9.93;;;;;;;;;;12979383;19;20047;-71
2023/04/16 12:14:55;;;;;;;11.95;6.50;;;;;;;;;;12979398;19;20015;-71
2023/04/16 12:19:14;;;;;;;6.40;3.88;;;;;;;;;;12977048;19;20007;-71
2023/04/16 12:23:33;;;;;;;4.82;3.35;;;;;;;;;;12976974;19;20011;-71
2023/04/16 12:27:54;;;;;;;6.43;3.28;;;;;;;;;;12976822;19;20018;-71
2023/04/16 12:32:22;;;;;;;6.90;3.42;;;;;;;;;;12977297;19;20017;-70
2023/04/16 12:36:41;;;;;;;9.60;4.07;;;;;;;;;;12977428;19;20010;-69
2023/04/16 12:41:01;;;;;;;21.50;11.95;;;;;;;;;;12978606;19;20018;-70
2023/04/16 12:45:18;;;;;;;6.35;3.78;;;;;;;;;;12989805;19;20018;-70
2023/04/16 12:49:36;;;;;;;;;;;;;;;;;;12991275;19;20006;-70
2023/04/16 12:53:54;;;;;;;23.27;11.02;;;;;;;;;;12990450;19;19919;-69
2023/04/16 12:58:12;;;;;;;;;;;;;;;;;;12989101;19;20048;-69
2023/04/16 13:02:31;;;;;;;5.85;3.00;;;;;;;;;;12988633;19;19929;-69
2023/04/16 13:06:49;;;;;;;5.65;2.70;;;;;;;;;;12989319;19;20049;-70
2023/04/16 13:11:07;;;;;;;4.88;3.03;;;;;;;;;;12988398;19;20007;-71
2023/04/16 13:15:25;;;;;;;8.02;3.83;;;;;;;;;;12988644;19;20021;-71
2023/04/16 13:19:43;;;;;;;7.43;3.90;;;;;;;;;;12988051;19;20592;-71
2023/04/16 13:24:01;;;;;;;9.98;4.20;;;;;;;;;;12986446;19;20355;-70
2023/04/16 13:28:18;;;;;;;4.80;2.45;;;;;;;;;;12987139;19;20354;-71
2023/04/16 13:32:36;;;;;;;;;;;;;;;;;;12988254;19;20469;-71
2023/04/16 13:36:54;;;;;;;8.73;3.45;;;;;;;;;;12985520;19;20351;-71
2023/04/16 13:41:11;;;;;;;7.10;3.00;;;;;;;;;;12986493;19;20350;-71
2023/04/16 13:45:29;;;;;;;4.65;2.72;;;;;;;;;;12987304;19;20010;-71
2023/04/16 13:49:47;;;;;;;3.05;2.17;;;;;;;;;;12987241;19;20314;-70
2023/04/16 13:54:05;;;;;;;5.80;3.03;;;;;;;;;;12984401;19;20014;-71
2023/04/16 13:58:23;;;;;;;4.85;2.92;;;;;;;;;;12986348;19;20010;-71
2023/04/16 14:02:41;;;;;;;5.53;2.78;;;;;;;;;;12986455;19;20022;-71
2023/04/16 14:06:59;;;;;;;4.05;2.78;;;;;;;;;;12986307;19;20457;-71
2023/04/16 14:11:17;;;;;;;4.18;2.78;;;;;;;;;;12985334;19;20006;-71
2023/04/16 14:15:35;;;;;;;5.82;2.58;;;;;;;;;;12985468;19;20019;-70
2023/04/16 14:19:52;;;;;;;;;;;;;;;;;;12985308;19;20021;-70
2023/04/16 14:24:10;;;;;;;3.92;2.38;;;;;;;;;;12983354;19;19917;-70
2023/04/16 14:28:28;;;;;;;9.07;3.38;;;;;;;;;;12984375;19;20018;-70
2023/04/16 14:32:45;;;;;;;4.72;3.20;;;;;;;;;;12984682;19;20034;-71
2023/04/16 14:37:04;;;;;;;4.38;2.83;;;;;;;;;;12983518;19;20034;-70
2023/04/16 14:41:22;;;;;;;4.20;2.90;;;;;;;;;;12985062;19;20014;-70
2023/04/16 14:45:40;;;;;;;6.03;3.47;;;;;;;;;;12984069;19;20488;-71
2023/04/16 14:49:58;;;;;;;5.75;3.22;;;;;;;;;;12983500;19;20006;-70
2023/04/16 14:54:16;;;;;;;;;;;;;;;;;;12983217;19;20022;-69
2023/04/16 14:58:34;;;;;;;6.60;4.57;;;;;;;;;;12983677;19;20556;-70
2023/04/16 15:02:55;;;;;;;7.57;4.22;;;;;;;;;;12982823;19;20492;-69
2023/04/16 15:07:13;;;;;;;8.95;4.35;;;;;;;;;;12981344;19;20021;-69
2023/04/16 15:11:31;;;;;;;5.72;4.30;;;;;;;;;;12982300;19;20038;-70
2023/04/16 15:15:48;;;;;;;12.05;4.50;;;;;;;;;;12981887;19;20006;-70
2023/04/16 15:20:08;;;;;;;7.35;3.88;;;;;;;;;;12979168;19;20018;-69
2023/04/16 15:24:25;;;;;;;7.15;3.95;;;;;;;;;;12982496;19;20026;-70
2023/04/16 15:28:43;;;;;;;6.25;3.88;;;;;;;;;;12982630;19;20007;-70
2023/04/16 15:33:00;;;;;;;5.63;3.75;;;;;;;;;;12981282;19;20346;-69
2023/04/16 15:37:18;;;;;;;9.05;4.90;;;;;;;;;;12980073;19;20014;-70
2023/04/16 15:41:38;;;;;;;;;;;;;;;;;;12981552;19;20042;-69
2023/04/16 15:46:15;;;;;;;7.53;4.65;;;;;;;;;;12980622;19;19934;-69
2023/04/16 15:50:34;;;;;;;5.03;3.70;;;;;;;;;;12980319;19;20018;-69
2023/04/16 15:54:51;;;;;;;8.35;4.85;;;;;;;;;;12979463;19;20026;-69
2023/04/16 15:59:09;;;;;;;6.95;4.20;;;;;;;;;;12977366;19;20339;-69
2023/04/16 16:03:27;;;;;;;9.10;4.75;;;;;;;;;;12979652;19;20484;-69
2023/04/16 16:07:45;;;;;;;6.93;4.43;;;;;;;;;;12978943;19;20011;-69
2023/04/16 16:12:03;;;;;;;8.85;5.22;;;;;;;;;;12976883;19;20021;-70
2023/04/16 16:16:20;;;;;;;10.52;5.95;;;;;;;;;;12983249;19;20026;-68
2023/04/16 16:20:39;;;;;;;9.73;5.85;;;;;;;;;;12990277;19;20029;-68
2023/04/16 16:24:57;;;;;;;6.57;4.72;;;;;;;;;;12991765;19;20014;-68
2023/04/16 16:29:15;;;;;;;8.30;5.32;;;;;;;;;;12990493;19;20529;-68
2023/04/16 16:33:33;;;;;;;15.68;9.32;;;;;;;;;;12990989;19;20494;-69
2023/04/16 16:37:54;;;;;;;;;;;;;;;;;;12990279;19;20015;-69
2023/04/16 16:42:17;;;;;;;9.23;5.90;;;;;;;;;;12989028;19;19923;-69
2023/04/16 16:46:35;;;;;;;10.20;5.57;;;;;;;;;;12990251;19;20018;-69
2023/04/16 16:50:53;;;;;;;7.95;4.88;;;;;;;;;;12989671;19;20353;-69
2023/04/16 16:55:11;;;;;;;8.32;4.72;;;;;;;;;;12988518;19;20064;-68
2023/04/16 16:59:29;;;;;;;;;;;;;;;;;;12989134;19;20041;-68
2023/04/16 17:03:46;;;;;;;17.50;9.30;;;;;;;;;;12989182;19;19935;-68
2023/04/16 17:08:05;;;;;;;;;;;;;;;;;;12989582;19;20011;-69
2023/04/16 17:12:23;;;;;;;15.35;7.45;;;;;;;;;;12990247;19;19926;-69
2023/04/16 17:16:41;;;;;;;12.18;7.35;;;;;;;;;;12988896;19;20019;-69
2023/04/16 17:20:59;;;;;;;;;;;;;;;;;;12986713;19;20592;-69
2023/04/16 17:25:17;;;;;;;21.98;10.80;;;;;;;;;;12986997;19;19946;-68
2023/04/16 17:29:34;;;;;;;33.78;16.65;;;;;;;;;;12984605;19;20030;-69
2023/04/16 17:33:52;;;;;;;32.78;17.60;;;;;;;;;;12987792;19;20018;-69
2023/04/16 17:38:10;;;;;;;71.97;37.17;;;;;;;;;;12986019;19;20018;-71
2023/04/16 17:42:28;;;;;;;51.20;26.45;;;;;;;;;;12986866;19;20021;-70
2023/04/16 17:46:46;;;;;;;22.73;13.80;;;;;;;;;;12986681;19;20018;-68
2023/04/16 17:51:16;;;;;;;15.60;10.35;;;;;;;;;;12986152;19;20021;-69
2023/04/16 17:55:34;;;;;;;13.38;8.45;;;;;;;;;;12986807;19;20006;-69
2023/04/16 17:59:52;;;;;;;10.15;7.45;;;;;;;;;;12986485;19;20010;-69
2023/04/16 18:04:09;;;;;;;12.88;8.48;;;;;;;;;;12985424;19;20538;-69
2023/04/16 18:08:28;;;;;;;23.92;11.50;;;;;;;;;;12987024;19;20010;-68
2023/04/16 18:12:46;;;;;;;17.20;9.07;;;;;;;;;;12986168;19;20014;-70
2023/04/16 18:17:04;;;;;;;;;;;;;;;;;;12985665;19;20010;-69
2023/04/16 18:21:23;;;;;;;17.08;7.68;;;;;;;;;;12982967;19;19919;-69
2023/04/16 18:25:40;;;;;;;14.05;7.15;;;;;;;;;;12985339;19;20701;-69
2023/04/16 18:29:58;;;;;;;16.55;9.25;;;;;;;;;;12984402;19;20473;-68
2023/04/16 18:34:16;;;;;;;16.77;9.45;;;;;;;;;;12984062;19;20010;-68
2023/04/16 18:38:34;;;;;;;46.90;16.52;;;;;;;;;;12982802;19;20009;-68
2023/04/16 18:42:57;;;;;;;46.75;14.73;;;;;;;;;;12983744;19;20014;-68
2023/04/16 18:47:15;;;;;;;36.47;12.90;;;;;;;;;;12982879;19;20048;-67
2023/04/16 18:51:33;;;;;;;20.17;9.43;;;;;;;;;;12983776;19;20003;-67
2023/04/16 18:55:54;;;;;;;16.67;9.60;;;;;;;;;;12983546;19;20023;-67
2023/04/16 19:00:12;;;;;;;25.02;9.23;;;;;;;;;;12982826;19;20111;-68
2023/04/16 19:04:30;;;;;;;21.00;9.48;;;;;;;;;;12982897;19;20003;-67
2023/04/16 19:08:48;;;;;;;23.08;9.38;;;;;;;;;;12982579;19;20465;-68
2023/04/16 19:13:05;;;;;;;13.40;7.72;;;;;;;;;;12981860;19;20030;-67
2023/04/16 19:17:23;;;;;;;14.88;7.85;;;;;;;;;;12982060;19;20010;-68
2023/04/16 19:21:41;;;;;;;14.23;8.82;;;;;;;;;;12981894;19;20453;-68
2023/04/16 19:26:00;;;;;;;15.27;8.48;;;;;;;;;;12981847;19;20047;-67
2023/04/16 19:30:18;;;;;;;14.63;7.47;;;;;;;;;;12980930;19;20350;-68
2023/04/16 19:34:35;;;;;;;10.57;7.07;;;;;;;;;;12981180;19;20461;-67
2023/04/16 19:38:53;;;;;;;94.38;31.98;;;;;;;;;;12980720;19;20010;-68
2023/04/16 19:43:11;;;;;;;22.75;11.52;;;;;;;;;;12980863;19;20358;-68
2023/04/16 19:47:29;;;;;;;;;;;;;;;;;;12982206;19;20019;-67
2023/04/16 19:51:46;;;;;;;16.17;10.50;;;;;;;;;;12986232;19;19918;-67
2023/04/16 19:56:04;;;;;;;51.33;20.52;;;;;;;;;;12992813;19;20011;-68
2023/04/16 20:00:22;;;;;;;23.20;10.70;;;;;;;;;;12991555;19;20025;-68
2023/04/16 20:04:39;;;;;;;23.13;11.05;;;;;;;;;;12992813;19;20389;-68
2023/04/16 20:08:57;;;;;;;19.23;10.05;;;;;;;;;;12991722;19;20015;-68
2023/04/16 20:13:15;;;;;;;26.33;13.52;;;;;;;;;;12991276;19;20022;-68
2023/04/16 20:17:35;;;;;;;27.77;13.57;;;;;;;;;;12991618;19;20056;-68
2023/04/16 20:21:52;;;;;;;33.72;17.33;;;;;;;;;;12989544;19;20018;-67
2023/04/16 20:26:17;;;;;;;28.83;15.00;;;;;;;;;;12991434;19;20014;-67
2023/04/16 20:30:38;;;;;;;29.17;13.55;;;;;;;;;;12991740;19;20413;-67
2023/04/16 20:34:55;;;;;;;22.48;12.20;;;;;;;;;;12991607;19;20010;-67
2023/04/16 20:39:13;;;;;;;22.02;12.00;;;;;;;;;;12990256;19;20360;-67
2023/04/16 20:43:36;;;;;;;17.20;10.25;;;;;;;;;;12991104;19;20048;-68
2023/04/16 20:47:55;;;;;;;14.38;8.75;;;;;;;;;;12990151;19;20013;-68
2023/04/16 20:52:13;;;;;;;14.32;8.90;;;;;;;;;;12988366;19;20022;-68
2023/04/16 20:56:31;;;;;;;12.23;8.23;;;;;;;;;;12989046;19;20026;-68
2023/04/16 21:00:50;;;;;;;10.88;5.95;;;;;;;;;;12988202;19;20048;-67
2023/04/16 21:05:12;;;;;;;11.20;5.88;;;;;;;;;;12987360;19;20501;-68
2023/04/16 21:09:30;;;;;;;8.45;5.18;;;;;;;;;;12989425;19;20035;-68
2023/04/16 21:13:48;;;;;;;11.60;5.40;;;;;;;;;;12988967;19;20014;-68
2023/04/16 21:18:06;;;;;;;9.48;5.55;;;;;;;;;;12987944;19;20010;-68
2023/04/16 21:22:24;;;;;;;9.10;4.57;;;;;;;;;;12986885;19;20013;-68
2023/04/16 21:26:41;;;;;;;8.80;5.53;;;;;;;;;;12989028;19;20469;-68
2023/04/16 21:30:59;;;;;;;7.93;5.55;;;;;;;;;;12988431;19;20019;-69
2023/04/16 21:35:17;;;;;;;6.72;4.68;;;;;;;;;;12987892;19;20010;-68
2023/04/16 21:39:35;;;;;;;7.75;4.30;;;;;;;;;;12986847;19;20410;-68
2023/04/16 21:43:52;;;;;;;;;;;;;;;;;;12988479;19;20473;-68
2023/04/16 21:48:11;;;;;;;6.53;4.20;;;;;;;;;;12986205;19;19918;-69
2023/04/16 21:52:29;;;;;;;8.45;4.47;;;;;;;;;;12987002;19;20022;-69
2023/04/16 21:56:46;;;;;;;6.57;4.13;;;;;;;;;;12985087;19;20459;-68
2023/04/16 22:01:05;;;;;;;6.25;3.95;;;;;;;;;;12985234;19;20015;-68
2023/04/16 22:05:25;;;;;;;8.00;4.07;;;;;;;;;;12985755;19;20014;-68
2023/04/16 22:09:43;;;;;;;7.35;3.63;;;;;;;;;;12986384;19;20006;-68
2023/04/16 22:14:01;;;;;;;6.60;3.90;;;;;;;;;;12985354;19;20033;-68
2023/04/16 22:18:19;;;;;;;7.32;3.60;;;;;;;;;;12986434;19;20042;-68
2023/04/16 22:22:38;;;;;;;8.40;4.10;;;;;;;;;;12984000;19;20006;-68
2023/04/16 22:26:55;;;;;;;4.55;3.50;;;;;;;;;;12985006;19;20405;-68
2023/04/16 22:31:13;;;;;;;6.00;3.95;;;;;;;;;;12984012;19;20018;-69
2023/04/16 22:35:31;;;;;;;7.38;4.05;;;;;;;;;;12985285;19;20014;-68
2023/04/16 22:39:49;;;;;;;5.47;3.78;;;;;;;;;;12984555;19;20059;-68
2023/04/16 22:44:07;;;;;;;6.50;3.83;;;;;;;;;;12983268;19;20018;-68
2023/04/16 22:48:25;;;;;;;6.80;4.00;;;;;;;;;;12983647;19;20504;-68
2023/04/16 22:52:42;;;;;;;5.47;3.85;;;;;;;;;;12984178;19;20010;-68
2023/04/16 22:57:00;;;;;;;7.88;4.45;;;;;;;;;;12983705;19;20014;-68
2023/04/16 23:01:18;;;;;;;5.85;4.18;;;;;;;;;;12983700;19;20011;-68
2023/04/16 23:05:36;;;;;;;7.15;4.35;;;;;;;;;;12983763;19;20462;-68
2023/04/16 23:09:54;;;;;;;5.03;3.95;;;;;;;;;;12983404;19;20021;-68
2023/04/16 23:14:12;;;;;;;6.43;4.05;;;;;;;;;;12982965;19;20015;-68
2023/04/16 23:18:33;;;;;;;6.00;3.70;;;;;;;;;;12983175;19;20434;-68
2023/04/16 23:22:51;;;;;;;6.80;4.22;;;;;;;;;;12981168;19;20014;-68
2023/04/16 23:27:09;;;;;;;7.32;4.60;;;;;;;;;;12981440;19;20010;-68
2023/04/16 23:31:27;;;;;;;5.13;3.63;;;;;;;;;;12981530;19;20006;-68
2023/04/16 23:35:46;;;;;;;6.90;4.13;;;;;;;;;;12982173;19;20026;-68
2023/04/16 23:40:07;;;;;;;7.25;4.07;;;;;;;;;;12979104;19;20022;-69
2023/04/16 23:44:25;;;;;;;6.07;4.40;;;;;;;;;;12981062;19;20021;-68
2023/04/16 23:48:44;;;;;;;6.18;4.22;;;;;;;;;;12980620;19;20018;-70
2023/04/16 23:53:02;;;;;;;5.03;3.42;;;;;;;;;;12980135;19;20014;-68
2023/04/16 23:57:19;;;;;;;6.82;4.57;;;;;;;;;;12980859;19;20552;-68
